createdAt,value
2023-03-30T00:01:01.348Z,7.20
2023-03-30T00:03:29.479Z,7.28
2023-03-30T00:05:57.285Z,6.90
2023-03-30T00:08:29.302Z,7.43
2023-03-30T00:11:13.206Z,6.82
2023-03-30T00:13:40.833Z,6.72
2023-03-30T00:16:10.609Z,6.45
2023-03-30T00:18:39.350Z,6.80
2023-03-30T00:21:09.508Z,6.60
2023-03-30T00:23:38.551Z,6.43
2023-03-30T00:26:07.413Z,6.30
2023-03-30T00:28:35.042Z,5.75
2023-03-30T00:31:02.966Z,5.80
2023-03-30T00:33:44.604Z,6.12
2023-03-30T00:36:13.150Z,5.30
2023-03-30T00:38:40.893Z,6.32
2023-03-30T00:41:09.204Z,5.35
2023-03-30T00:44:06.496Z,5.65
2023-03-30T00:46:34.103Z,5.53
2023-03-30T00:49:08.689Z,5.95
2023-03-30T00:51:38.360Z,5.70
2023-03-30T00:54:12.833Z,6.07
2023-03-30T00:56:40.459Z,6.25
2023-03-30T00:59:09.205Z,5.43
2023-03-30T01:01:39.533Z,6.20
2023-03-30T01:04:08.462Z,5.68
2023-03-30T01:06:37.018Z,5.80
2023-03-30T01:09:04.471Z,6.47
2023-03-30T01:11:31.833Z,7.15
2023-03-30T01:14:03.375Z,6.70
2023-03-30T01:16:36.978Z,7.12
2023-03-30T01:19:36.140Z,6.55
2023-03-30T01:22:22.345Z,6.72
2023-03-30T01:25:23.983Z,6.70
2023-03-30T01:28:16.498Z,6.28
2023-03-30T01:31:05.997Z,6.65
2023-03-30T01:33:56.059Z,7.05
2023-03-30T01:37:01.596Z,7.07
2023-03-30T01:40:10.029Z,7.00
2023-03-30T01:42:46.912Z,7.62
2023-03-30T01:45:25.304Z,8.23
2023-03-30T01:47:57.267Z,8.00
2023-03-30T01:50:28.117Z,7.18
2023-03-30T01:53:02.840Z,8.25
2023-03-30T01:55:40.972Z,7.78
2023-03-30T01:58:22.337Z,7.37
2023-03-30T02:00:50.555Z,7.75
2023-03-30T02:03:22.679Z,7.53
2023-03-30T02:05:52.939Z,7.47
2023-03-30T02:08:23.999Z,7.85
2023-03-30T02:10:53.552Z,6.97
2023-03-30T02:13:22.500Z,7.97
2023-03-30T02:15:57.163Z,7.95
2023-03-30T02:18:25.430Z,8.15
2023-03-30T02:20:53.437Z,7.62
2023-03-30T02:23:22.590Z,7.12
2023-03-30T02:25:50.054Z,7.60
2023-03-30T02:28:18.462Z,7.25
2023-03-30T02:30:47.176Z,7.22
2023-03-30T02:33:25.396Z,7.37
2023-03-30T02:36:19.461Z,6.97
2023-03-30T02:38:46.853Z,7.32
2023-03-30T02:41:23.725Z,6.97
2023-03-30T02:44:13.222Z,6.82
2023-03-30T02:47:05.459Z,7.47
2023-03-30T02:49:55.654Z,7.12
2023-03-30T02:52:43.067Z,7.72
2023-03-30T02:55:20.318Z,6.90
2023-03-30T02:58:23.756Z,6.53
2023-03-30T03:00:52.095Z,6.95
2023-03-30T03:03:24.252Z,7.22
2023-03-30T03:05:56.063Z,6.73
2023-03-30T03:08:25.377Z,6.60
2023-03-30T03:10:53.118Z,5.90
2023-03-30T03:13:22.104Z,6.00
2023-03-30T03:15:50.663Z,6.07
2023-03-30T03:18:18.625Z,6.20
2023-03-30T03:20:46.652Z,7.30
2023-03-30T03:23:14.547Z,6.53
2023-03-30T03:25:42.665Z,6.03
2023-03-30T03:28:10.315Z,6.78
2023-03-30T03:30:39.071Z,6.65
2023-03-30T03:33:07.294Z,6.47
2023-03-30T03:35:35.178Z,6.53
2023-03-30T03:38:03.053Z,6.60
2023-03-30T03:40:30.703Z,6.82
2023-03-30T03:42:58.250Z,6.05
2023-03-30T03:45:26.526Z,6.65
2023-03-30T03:47:54.739Z,6.72
2023-03-30T03:50:22.993Z,6.97
2023-03-30T03:52:51.258Z,11.23
2023-03-30T03:55:19.682Z,9.27
2023-03-30T03:57:47.391Z,9.13
2023-03-30T04:00:18.152Z,7.53
2023-03-30T04:02:46.451Z,9.13
2023-03-30T04:05:14.247Z,8.68
2023-03-30T04:07:41.724Z,6.97
2023-03-30T04:10:10.343Z,7.53
2023-03-30T04:12:38.985Z,7.85
2023-03-30T04:15:07.570Z,6.97
2023-03-30T04:17:36.980Z,6.72
2023-03-30T04:20:08.918Z,5.65
2023-03-30T04:22:37.196Z,6.43
2023-03-30T04:25:05.563Z,6.53
2023-03-30T04:27:33.548Z,6.43
2023-03-30T04:30:05.730Z,6.37
2023-03-30T04:32:38.945Z,5.87
2023-03-30T04:35:08.697Z,5.93
2023-03-30T04:37:38.299Z,6.32
2023-03-30T04:40:09.436Z,7.22
2023-03-30T04:42:39.829Z,6.40
2023-03-30T04:45:08.447Z,6.53
2023-03-30T04:47:36.322Z,6.53
2023-03-30T04:50:04.897Z,5.80
2023-03-30T04:52:38.384Z,5.90
2023-03-30T04:55:06.711Z,7.12
2023-03-30T04:57:35.796Z,5.90
2023-03-30T05:00:09.391Z,6.37
2023-03-30T05:02:54.636Z,6.85
2023-03-30T05:05:22.531Z,6.97
2023-03-30T05:07:51.897Z,7.68
2023-03-30T05:10:19.620Z,7.85
2023-03-30T05:12:48.660Z,9.20
2023-03-30T05:15:16.503Z,7.53
2023-03-30T05:17:44.277Z,7.30
2023-03-30T05:20:12.763Z,7.30
2023-03-30T05:22:41.472Z,6.87
2023-03-30T05:25:10.008Z,7.90
2023-03-30T05:27:38.218Z,7.85
2023-03-30T05:30:08.292Z,7.05
2023-03-30T05:32:36.239Z,7.00
2023-03-30T05:35:04.546Z,7.43
2023-03-30T05:37:32.614Z,7.20
2023-03-30T05:40:00.145Z,7.45
2023-03-30T05:42:27.742Z,8.10
2023-03-30T05:44:56.338Z,8.60
2023-03-30T05:47:25.122Z,7.95
2023-03-30T05:49:52.678Z,7.43
2023-03-30T05:52:21.645Z,7.53
2023-03-30T05:54:49.631Z,8.00
2023-03-30T05:57:17.720Z,8.23
2023-03-30T05:59:45.575Z,6.82
2023-03-30T06:02:14.198Z,7.03
2023-03-30T06:04:42.614Z,7.05
2023-03-30T06:07:10.654Z,7.53
2023-03-30T06:09:38.544Z,6.65
2023-03-30T06:12:07.071Z,6.65
2023-03-30T06:14:34.862Z,6.85
2023-03-30T06:17:05.353Z,6.43
2023-03-30T06:19:33.131Z,6.50
2023-03-30T06:22:00.697Z,7.22
2023-03-30T06:24:28.222Z,6.68
2023-03-30T06:26:56.829Z,6.25
2023-03-30T06:29:24.316Z,7.28
2023-03-30T06:31:51.865Z,7.00
2023-03-30T06:34:21.961Z,6.82
2023-03-30T06:36:49.344Z,6.53
2023-03-30T06:39:17.235Z,7.28
2023-03-30T06:41:45.377Z,7.60
2023-03-30T06:44:20.286Z,7.60
2023-03-30T06:46:48.043Z,7.78
2023-03-30T06:49:15.631Z,6.95
2023-03-30T06:51:47.148Z,8.23
2023-03-30T06:54:14.961Z,7.10
2023-03-30T06:56:43.294Z,7.43
2023-03-30T06:59:10.780Z,7.57
2023-03-30T07:01:39.976Z,8.80
2023-03-30T07:04:08.849Z,7.70
2023-03-30T07:06:37.143Z,7.50
2023-03-30T07:09:05.729Z,7.62
2023-03-30T07:11:33.569Z,7.68
2023-03-30T07:14:02.350Z,7.47
2023-03-30T07:16:30.115Z,7.40
2023-03-30T07:18:57.588Z,6.95
2023-03-30T07:21:25.592Z,8.13
2023-03-30T07:23:53.443Z,7.45
2023-03-30T07:26:24.012Z,7.00
2023-03-30T07:28:52.096Z,7.82
2023-03-30T07:31:21.922Z,7.03
2023-03-30T07:33:50.314Z,7.22
2023-03-30T07:36:18.847Z,8.30
2023-03-30T07:38:47.432Z,6.72
2023-03-30T07:41:16.359Z,7.93
2023-03-30T07:43:47.405Z,7.97
2023-03-30T07:46:15.456Z,7.75
2023-03-30T07:48:43.322Z,8.52
2023-03-30T07:51:13.001Z,7.80
2023-03-30T07:53:42.251Z,7.72
2023-03-30T07:56:10.639Z,7.65
2023-03-30T07:58:39.205Z,7.28
2023-03-30T08:01:07.049Z,7.68
2023-03-30T08:03:37.128Z,7.97
2023-03-30T08:06:06.425Z,8.20
2023-03-30T08:08:34.508Z,8.15
2023-03-30T08:11:02.762Z,7.97
2023-03-30T08:13:32.790Z,8.15
2023-03-30T08:16:00.313Z,8.48
2023-03-30T08:18:29.160Z,8.90
2023-03-30T08:20:56.664Z,8.45
2023-03-30T08:23:24.092Z,8.60
2023-03-30T08:25:52.862Z,8.50
2023-03-30T08:28:21.308Z,8.05
2023-03-30T08:30:49.107Z,9.68
2023-03-30T08:33:17.158Z,9.02
2023-03-30T08:35:48.089Z,8.52
2023-03-30T08:38:17.329Z,8.52
2023-03-30T08:40:47.339Z,9.15
2023-03-30T08:43:22.553Z,12.85
2023-03-30T08:45:51.746Z,10.00
2023-03-30T08:48:24.519Z,9.00
2023-03-30T08:50:59.479Z,9.57
2023-03-30T08:53:29.080Z,9.07
2023-03-30T08:56:18.058Z,9.15
2023-03-30T08:59:16.404Z,9.30
2023-03-30T09:01:52.531Z,9.15
2023-03-30T09:04:23.190Z,9.27
2023-03-30T09:06:56.306Z,10.05
2023-03-30T09:09:28.109Z,9.63
2023-03-30T09:12:02.950Z,10.07
2023-03-30T09:14:42.451Z,10.60
2023-03-30T09:17:22.060Z,10.63
2023-03-30T09:19:54.860Z,9.15
2023-03-30T09:22:26.262Z,9.88
2023-03-30T09:24:54.303Z,10.95
2023-03-30T09:27:42.786Z,9.13
2023-03-30T09:30:22.894Z,10.10
2023-03-30T09:33:00.456Z,10.35
2023-03-30T09:35:42.155Z,9.30
2023-03-30T09:38:13.763Z,10.20
2023-03-30T09:41:04.980Z,9.90
2023-03-30T09:43:46.062Z,9.38
2023-03-30T09:46:15.302Z,10.27
2023-03-30T09:48:45.341Z,10.30
2023-03-30T09:51:31.060Z,10.23
2023-03-30T09:54:01.691Z,10.88
2023-03-30T09:56:37.246Z,10.57
2023-03-30T09:59:34.752Z,10.60
2023-03-30T10:02:15.759Z,10.88
2023-03-30T10:04:52.976Z,11.25
2023-03-30T10:07:22.936Z,10.30
2023-03-30T10:09:51.305Z,11.12
2023-03-30T10:12:19.098Z,11.23
2023-03-30T10:14:46.609Z,11.45
2023-03-30T10:17:23.257Z,11.23
2023-03-30T10:20:03.668Z,11.65
2023-03-30T10:22:52.272Z,11.12
2023-03-30T10:25:23.754Z,11.57
2023-03-30T10:27:53.599Z,11.15
2023-03-30T10:30:24.769Z,11.20
2023-03-30T10:32:53.439Z,10.33
2023-03-30T10:35:24.155Z,10.38
2023-03-30T10:37:55.864Z,11.12
2023-03-30T10:40:32.828Z,10.00
2023-03-30T10:43:01.339Z,10.05
2023-03-30T10:45:36.829Z,11.10
2023-03-30T10:48:40.330Z,10.63
2023-03-30T10:51:12.228Z,10.38
2023-03-30T10:56:47.412Z,10.68
2023-03-30T10:59:27.255Z,10.10
2023-03-30T11:02:02.030Z,9.70
2023-03-30T11:04:47.095Z,9.13
2023-03-30T11:07:55.356Z,9.15
2023-03-30T11:10:32.065Z,9.02
2023-03-30T11:13:03.251Z,7.78
2023-03-30T11:15:36.732Z,7.37
2023-03-30T11:18:14.433Z,7.28
2023-03-30T11:21:10.947Z,7.25
2023-03-30T11:23:59.830Z,7.10
2023-03-30T11:26:58.002Z,7.30
2023-03-30T11:29:34.411Z,7.03
2023-03-30T11:32:52.973Z,7.07
2023-03-30T11:35:36.305Z,7.32
2023-03-30T11:38:13.996Z,6.93
2023-03-30T11:40:48.082Z,7.12
2023-03-30T11:43:17.955Z,7.00
2023-03-30T11:46:00.725Z,6.03
2023-03-30T11:48:45.975Z,6.22
2023-03-30T11:51:38.064Z,6.60
2023-03-30T11:54:13.263Z,6.30
2023-03-30T11:56:47.234Z,6.22
2023-03-30T11:59:34.644Z,10.40
2023-03-30T12:02:32.484Z,7.25
2023-03-30T12:05:06.797Z,5.80
2023-03-30T12:08:01.397Z,6.25
2023-03-30T12:10:40.601Z,8.73
2023-03-30T12:13:15.767Z,5.93
2023-03-30T12:15:43.406Z,6.25
2023-03-30T12:18:19.958Z,5.78
2023-03-30T12:20:56.226Z,6.15
2023-03-30T12:23:40.735Z,5.93
2023-03-30T12:26:08.400Z,6.78
2023-03-30T12:31:51.760Z,7.30
2023-03-30T12:34:20.837Z,6.10
2023-03-30T12:37:00.797Z,6.18
2023-03-30T12:39:31.344Z,5.87
2023-03-30T12:42:08.240Z,6.20
2023-03-30T12:45:01.592Z,5.07
2023-03-30T12:47:51.230Z,6.62
2023-03-30T12:51:10.096Z,8.68
2023-03-30T12:54:01.827Z,6.53
2023-03-30T12:56:46.440Z,5.35
2023-03-30T12:59:26.316Z,5.90
2023-03-30T13:02:12.312Z,6.45
2023-03-30T13:04:40.648Z,6.47
2023-03-30T13:07:36.394Z,5.75
2023-03-30T13:10:26.684Z,5.80
2023-03-30T13:12:56.602Z,5.60
2023-03-30T13:15:33.189Z,5.82
2023-03-30T13:18:08.645Z,5.40
2023-03-30T13:20:46.646Z,6.10
2023-03-30T13:23:14.236Z,6.45
2023-03-30T13:25:45.506Z,5.47
2023-03-30T13:28:34.683Z,5.80
2023-03-30T13:31:33.314Z,5.32
2023-03-30T13:34:20.289Z,4.85
2023-03-30T13:37:23.876Z,5.15
2023-03-30T13:40:10.719Z,5.65
2023-03-30T13:43:06.776Z,5.65
2023-03-30T13:46:13.237Z,5.60
2023-03-30T13:48:55.857Z,5.18
2023-03-30T13:51:28.076Z,5.90
2023-03-30T13:54:02.948Z,6.30
2023-03-30T13:56:31.950Z,5.85
2023-03-30T13:59:03.603Z,6.00
2023-03-30T14:01:31.137Z,5.57
2023-03-30T14:04:00.929Z,5.60
2023-03-30T14:06:30.829Z,6.10
2023-03-30T14:09:25.966Z,5.97
2023-03-30T14:12:00.719Z,6.28
2023-03-30T14:14:43.571Z,5.45
2023-03-30T14:17:22.552Z,6.15
2023-03-30T14:20:27.640Z,5.68
2023-03-30T14:22:56.009Z,6.30
2023-03-30T14:25:27.070Z,5.90
2023-03-30T14:27:57.404Z,6.07
2023-03-30T14:30:31.240Z,6.70
2023-03-30T14:33:10.721Z,6.10
2023-03-30T14:35:42.353Z,6.15
2023-03-30T14:38:17.230Z,6.18
2023-03-30T14:40:45.626Z,5.72
2023-03-30T14:43:20.750Z,5.80
2023-03-30T14:45:49.442Z,5.53
2023-03-30T14:48:35.061Z,5.65
2023-03-30T14:51:09.610Z,5.68
2023-03-30T14:53:37.450Z,6.37
2023-03-30T14:56:06.072Z,7.00
2023-03-30T14:58:33.678Z,8.02
2023-03-30T15:01:06.190Z,8.27
2023-03-30T15:03:37.092Z,8.10
2023-03-30T15:06:06.630Z,7.62
2023-03-30T15:08:37.348Z,8.20
2023-03-30T15:11:12.354Z,8.52
2023-03-30T15:13:48.358Z,7.10
2023-03-30T15:16:20.792Z,7.62
2023-03-30T15:21:15.939Z,8.25
2023-03-30T15:23:45.436Z,7.47
2023-03-30T15:26:13.178Z,8.52
2023-03-30T15:28:50.957Z,7.62
2023-03-30T15:31:19.230Z,8.40
2023-03-30T15:33:51.154Z,7.65
2023-03-30T15:36:19.537Z,8.13
2023-03-30T15:38:58.769Z,7.43
2023-03-30T15:41:56.866Z,7.90
2023-03-30T15:44:24.774Z,10.10
2023-03-30T15:46:55.414Z,10.77
2023-03-30T15:49:29.256Z,14.85
2023-03-30T15:52:01.704Z,15.20
2023-03-30T15:54:55.084Z,14.13
2023-03-30T15:57:25.176Z,11.95
2023-03-30T15:59:58.130Z,13.85
2023-03-30T16:02:32.204Z,17.25
2023-03-30T16:05:04.653Z,17.98
2023-03-30T16:07:32.561Z,21.48
2023-03-30T16:10:00.450Z,15.98
2023-03-30T16:12:29.324Z,13.90
2023-03-30T16:14:58.309Z,11.95
2023-03-30T16:17:26.161Z,10.15
2023-03-30T16:19:53.719Z,11.38
2023-03-30T16:22:21.124Z,11.10
2023-03-30T16:24:48.772Z,10.70
2023-03-30T16:27:16.212Z,13.05
2023-03-30T16:29:43.603Z,11.68
2023-03-30T16:32:11.341Z,13.10
2023-03-30T16:34:39.854Z,14.35
2023-03-30T16:37:09.668Z,14.23
2023-03-30T16:39:37.343Z,14.95
2023-03-30T16:42:04.862Z,16.10
2023-03-30T16:44:32.644Z,17.75
2023-03-30T16:47:00.506Z,18.75
2023-03-30T16:49:27.939Z,17.90
2023-03-30T16:51:57.834Z,19.70
2023-03-30T16:54:31.006Z,18.85
2023-03-30T16:57:01.080Z,18.30
2023-03-30T16:59:30.588Z,17.55
2023-03-30T17:01:59.260Z,17.02
2023-03-30T17:04:26.878Z,16.70
2023-03-30T17:06:55.210Z,16.23
2023-03-30T17:09:23.418Z,18.30
2023-03-30T17:11:51.062Z,20.10
2023-03-30T17:14:20.323Z,21.35
2023-03-30T17:16:47.956Z,20.92
2023-03-30T17:19:15.854Z,18.73
2023-03-30T17:21:43.933Z,19.50
2023-03-30T17:24:12.712Z,20.25
2023-03-30T17:26:40.627Z,18.20
2023-03-30T17:29:09.708Z,19.08
2023-03-30T17:31:38.419Z,18.48
2023-03-30T17:34:07.083Z,21.20
2023-03-30T17:36:35.100Z,27.92
2023-03-30T17:39:05.541Z,25.10
2023-03-30T17:41:36.193Z,23.83
2023-03-30T17:44:03.917Z,22.55
2023-03-30T17:46:32.465Z,19.62
2023-03-30T17:49:00.639Z,20.40
2023-03-30T17:51:28.397Z,19.00
2023-03-30T17:53:55.834Z,19.87
2023-03-30T17:56:23.212Z,19.02
2023-03-30T17:58:53.111Z,21.70
2023-03-30T18:01:20.919Z,22.77
2023-03-30T18:03:48.791Z,29.23
2023-03-30T18:06:17.023Z,36.17
2023-03-30T18:08:44.458Z,41.88
2023-03-30T18:11:12.265Z,22.08
2023-03-30T18:13:39.742Z,17.40
2023-03-30T18:16:07.382Z,16.02
2023-03-30T18:18:35.192Z,17.80
2023-03-30T18:21:04.276Z,20.60
2023-03-30T18:23:36.036Z,20.88
2023-03-30T18:26:10.250Z,19.62
2023-03-30T18:28:43.810Z,19.52
2023-03-30T18:31:12.424Z,20.88
2023-03-30T18:33:39.998Z,19.08
2023-03-30T18:36:12.603Z,24.45
2023-03-30T18:38:41.023Z,32.10
2023-03-30T18:41:11.502Z,26.52
2023-03-30T18:43:39.296Z,26.23
2023-03-30T18:46:07.278Z,23.40
2023-03-30T18:48:34.775Z,21.87
2023-03-30T18:51:02.250Z,22.58
2023-03-30T18:53:29.926Z,22.25
2023-03-30T18:56:00.391Z,21.60
2023-03-30T18:58:30.523Z,22.35
2023-03-30T19:00:58.369Z,22.30
2023-03-30T19:03:27.909Z,28.25
2023-03-30T19:05:56.001Z,30.25
2023-03-30T19:08:25.511Z,31.73
2023-03-30T19:10:57.612Z,26.87
2023-03-30T19:13:26.329Z,25.02
2023-03-30T19:15:54.153Z,23.52
2023-03-30T19:18:21.587Z,22.25
2023-03-30T19:20:50.802Z,22.87
2023-03-30T19:23:19.185Z,22.23
2023-03-30T19:25:46.692Z,26.35
2023-03-30T19:28:15.618Z,23.12
2023-03-30T19:30:43.597Z,23.77
2023-03-30T19:33:15.196Z,22.92
2023-03-30T19:35:44.321Z,23.92
2023-03-30T19:38:12.464Z,22.42
2023-03-30T19:40:40.985Z,23.38
2023-03-30T19:43:09.373Z,22.65
2023-03-30T19:45:37.269Z,23.60
2023-03-30T19:48:05.523Z,23.33
2023-03-30T19:50:33.216Z,23.12
2023-03-30T19:53:00.765Z,22.70
2023-03-30T19:55:28.211Z,23.40
2023-03-30T19:57:56.021Z,23.35
2023-03-30T20:00:23.841Z,25.85
2023-03-30T20:02:53.515Z,18.70
2023-03-30T20:05:22.557Z,18.05
2023-03-30T20:07:50.551Z,19.95
2023-03-30T20:10:21.152Z,17.40
2023-03-30T20:12:49.715Z,16.20
2023-03-30T20:15:17.887Z,15.95
2023-03-30T20:17:45.703Z,17.12
2023-03-30T20:20:16.814Z,20.65
2023-03-30T20:22:44.681Z,19.17
2023-03-30T20:25:14.041Z,17.87
2023-03-30T20:27:41.804Z,19.42
2023-03-30T20:30:11.564Z,21.42
2023-03-30T20:32:39.435Z,23.45
2023-03-30T20:35:07.600Z,28.75
2023-03-30T20:37:35.291Z,27.60
2023-03-30T20:40:05.101Z,24.95
2023-03-30T20:42:32.882Z,15.30
2023-03-30T20:45:01.214Z,13.73
2023-03-30T20:47:30.586Z,12.32
2023-03-30T20:49:59.078Z,12.80
2023-03-30T20:52:27.296Z,12.37
2023-03-30T20:54:56.206Z,10.93
2023-03-30T20:57:24.398Z,11.73
2023-03-30T20:59:54.629Z,11.05
2023-03-30T21:02:22.170Z,10.15
2023-03-30T21:04:50.361Z,10.55
2023-03-30T21:07:18.401Z,10.20
2023-03-30T21:09:45.813Z,11.50
2023-03-30T21:12:13.278Z,10.73
2023-03-30T21:14:41.238Z,9.63
2023-03-30T21:17:08.713Z,11.85
2023-03-30T21:19:36.707Z,11.30
2023-03-30T21:22:04.629Z,12.27
2023-03-30T21:24:32.955Z,11.63
2023-03-30T21:27:00.472Z,12.65
2023-03-30T21:29:28.159Z,10.73
2023-03-30T21:31:57.694Z,10.90
2023-03-30T21:34:25.080Z,11.60
2023-03-30T21:36:53.250Z,12.18
2023-03-30T21:39:20.978Z,11.82
2023-03-30T21:41:48.425Z,10.02
2023-03-30T21:44:16.226Z,10.82
2023-03-30T21:46:43.664Z,9.75
2023-03-30T21:49:12.007Z,10.25
2023-03-30T21:51:39.791Z,8.98
2023-03-30T21:54:07.751Z,7.82
2023-03-30T21:56:35.295Z,7.55
2023-03-30T21:59:03.064Z,8.27
2023-03-30T22:01:30.654Z,7.95
2023-03-30T22:03:58.457Z,7.07
2023-03-30T22:06:25.949Z,7.57
2023-03-30T22:08:53.727Z,8.48
2023-03-30T22:11:23.974Z,9.15
2023-03-30T22:13:52.272Z,9.70
2023-03-30T22:16:22.488Z,9.73
2023-03-30T22:18:51.023Z,9.52
2023-03-30T22:21:26.081Z,7.93
2023-03-30T22:23:54.746Z,7.60
2023-03-30T22:26:22.658Z,7.75
2023-03-30T22:28:50.034Z,7.35
2023-03-30T22:31:17.741Z,6.90
2023-03-30T22:33:45.597Z,7.15
2023-03-30T22:36:21.051Z,6.93
2023-03-30T22:38:49.777Z,8.13
2023-03-30T22:41:18.783Z,7.75
2023-03-30T22:43:46.853Z,7.18
2023-03-30T22:46:14.590Z,7.25
2023-03-30T22:48:45.259Z,7.82
2023-03-30T22:51:23.256Z,7.70
2023-03-30T22:53:50.990Z,8.05
2023-03-30T22:56:18.445Z,7.03
2023-03-30T22:58:47.648Z,7.03
2023-03-30T23:01:15.879Z,7.22
2023-03-30T23:03:43.526Z,6.78
2023-03-30T23:06:11.370Z,7.47
2023-03-30T23:08:39.295Z,6.55
2023-03-30T23:11:08.139Z,6.72
2023-03-30T23:13:37.635Z,7.00
2023-03-30T23:16:06.542Z,6.32
2023-03-30T23:18:35.069Z,6.87
2023-03-30T23:21:06.477Z,6.35
2023-03-30T23:26:08.333Z,5.60
2023-03-30T23:28:41.759Z,6.00
2023-03-30T23:31:12.037Z,6.30
2023-03-30T23:33:41.030Z,5.97
2023-03-30T23:36:09.675Z,6.50
2023-03-30T23:38:37.790Z,5.93
2023-03-30T23:41:06.179Z,6.10
2023-03-30T23:43:33.659Z,6.62
2023-03-30T23:46:01.209Z,6.32
2023-03-30T23:48:29.226Z,6.20
2023-03-30T23:50:57.573Z,6.68
2023-03-30T23:53:26.472Z,6.57
2023-03-30T23:55:54.813Z,5.57
2023-03-30T23:58:22.427Z,5.30
